sensor_id;sensor_type;location;lat;lon;timestamp;P1;durP1;ratioP1;P2;durP2;ratioP2
76593;SDS011;65482;50.240;14.302;2023-05-10T00:01:08;4.85;;;2.83;;
76593;SDS011;65482;50.240;14.302;2023-05-10T00:03:33;3.50;;;2.60;;
76593;SDS011;65482;50.240;14.302;2023-05-10T00:05:59;5.45;;;2.90;;
76593;SDS011;65482;50.240;14.302;2023-05-10T00:08:26;4.03;;;2.70;;
76593;SDS011;65482;50.240;14.302;2023-05-10T00:10:52;4.00;;;2.97;;
76593;SDS011;65482;50.240;14.302;2023-05-10T00:13:20;4.55;;;3.05;;
76593;SDS011;65482;50.240;14.302;2023-05-10T00:15:51;3.45;;;2.55;;
76593;SDS011;65482;50.240;14.302;2023-05-10T00:18:18;4.82;;;2.75;;
76593;SDS011;65482;50.240;14.302;2023-05-10T00:20:44;3.25;;;2.60;;
76593;SDS011;65482;50.240;14.302;2023-05-10T00:23:11;3.60;;;2.60;;
76593;SDS011;65482;50.240;14.302;2023-05-10T00:25:37;2.92;;;2.55;;
76593;SDS011;65482;50.240;14.302;2023-05-10T00:28:02;4.95;;;2.72;;
76593;SDS011;65482;50.240;14.302;2023-05-10T00:30:28;3.92;;;2.42;;
76593;SDS011;65482;50.240;14.302;2023-05-10T00:32:54;5.28;;;2.80;;
76593;SDS011;65482;50.240;14.302;2023-05-10T00:35:20;6.45;;;2.50;;
76593;SDS011;65482;50.240;14.302;2023-05-10T00:37:46;4.40;;;2.70;;
76593;SDS011;65482;50.240;14.302;2023-05-10T00:40:12;5.70;;;2.80;;
76593;SDS011;65482;50.240;14.302;2023-05-10T00:42:38;4.20;;;2.53;;
76593;SDS011;65482;50.240;14.302;2023-05-10T00:45:04;3.33;;;2.53;;
76593;SDS011;65482;50.240;14.302;2023-05-10T00:47:29;3.88;;;2.30;;
76593;SDS011;65482;50.240;14.302;2023-05-10T00:49:55;3.42;;;2.67;;
76593;SDS011;65482;50.240;14.302;2023-05-10T00:52:23;3.85;;;2.47;;
76593;SDS011;65482;50.240;14.302;2023-05-10T00:54:52;3.80;;;2.88;;
76593;SDS011;65482;50.240;14.302;2023-05-10T00:57:18;5.55;;;2.70;;
76593;SDS011;65482;50.240;14.302;2023-05-10T00:59:44;3.55;;;2.33;;
76593;SDS011;65482;50.240;14.302;2023-05-10T01:02:10;4.43;;;2.35;;
76593;SDS011;65482;50.240;14.302;2023-05-10T01:04:40;3.85;;;2.60;;
76593;SDS011;65482;50.240;14.302;2023-05-10T01:07:06;4.72;;;2.88;;
76593;SDS011;65482;50.240;14.302;2023-05-10T01:09:32;4.43;;;2.65;;
76593;SDS011;65482;50.240;14.302;2023-05-10T01:11:58;5.88;;;2.42;;
76593;SDS011;65482;50.240;14.302;2023-05-10T01:14:25;4.45;;;2.33;;
76593;SDS011;65482;50.240;14.302;2023-05-10T01:16:53;3.25;;;2.42;;
76593;SDS011;65482;50.240;14.302;2023-05-10T01:19:22;4.45;;;2.45;;
76593;SDS011;65482;50.240;14.302;2023-05-10T01:21:58;3.28;;;2.38;;
76593;SDS011;65482;50.240;14.302;2023-05-10T01:27:20;3.75;;;2.47;;
76593;SDS011;65482;50.240;14.302;2023-05-10T01:35:37;3.38;;;2.40;;
76593;SDS011;65482;50.240;14.302;2023-05-10T01:38:18;2.88;;;2.40;;
76593;SDS011;65482;50.240;14.302;2023-05-10T01:44:00;3.55;;;2.60;;
76593;SDS011;65482;50.240;14.302;2023-05-10T01:46:43;4.28;;;2.53;;
76593;SDS011;65482;50.240;14.302;2023-05-10T01:49:20;7.03;;;2.70;;
76593;SDS011;65482;50.240;14.302;2023-05-10T01:54:20;5.97;;;2.90;;
76593;SDS011;65482;50.240;14.302;2023-05-10T01:56:50;3.42;;;2.45;;
76593;SDS011;65482;50.240;14.302;2023-05-10T01:59:20;4.65;;;2.50;;
76593;SDS011;65482;50.240;14.302;2023-05-10T02:01:47;4.10;;;2.13;;
76593;SDS011;65482;50.240;14.302;2023-05-10T02:04:16;4.25;;;2.80;;
76593;SDS011;65482;50.240;14.302;2023-05-10T02:06:44;5.18;;;2.65;;
76593;SDS011;65482;50.240;14.302;2023-05-10T02:09:12;3.35;;;2.65;;
76593;SDS011;65482;50.240;14.302;2023-05-10T02:11:41;3.35;;;2.38;;
76593;SDS011;65482;50.240;14.302;2023-05-10T02:14:09;4.97;;;2.63;;
76593;SDS011;65482;50.240;14.302;2023-05-10T02:16:37;3.97;;;2.60;;
76593;SDS011;65482;50.240;14.302;2023-05-10T02:19:03;4.18;;;2.60;;
76593;SDS011;65482;50.240;14.302;2023-05-10T02:21:30;3.42;;;2.50;;
76593;SDS011;65482;50.240;14.302;2023-05-10T02:23:57;3.67;;;2.60;;
76593;SDS011;65482;50.240;14.302;2023-05-10T02:26:26;4.43;;;2.95;;
76593;SDS011;65482;50.240;14.302;2023-05-10T02:28:53;3.58;;;2.88;;
76593;SDS011;65482;50.240;14.302;2023-05-10T02:31:20;5.32;;;2.88;;
76593;SDS011;65482;50.240;14.302;2023-05-10T02:33:47;4.05;;;2.83;;
76593;SDS011;65482;50.240;14.302;2023-05-10T02:36:16;4.00;;;2.80;;
76593;SDS011;65482;50.240;14.302;2023-05-10T02:38:45;11.20;;;3.17;;
76593;SDS011;65482;50.240;14.302;2023-05-10T02:41:13;3.05;;;2.40;;
76593;SDS011;65482;50.240;14.302;2023-05-10T02:43:39;3.90;;;2.65;;
76593;SDS011;65482;50.240;14.302;2023-05-10T02:46:07;3.15;;;2.38;;
76593;SDS011;65482;50.240;14.302;2023-05-10T02:48:32;3.05;;;2.42;;
76593;SDS011;65482;50.240;14.302;2023-05-10T02:51:00;3.42;;;2.30;;
76593;SDS011;65482;50.240;14.302;2023-05-10T02:53:33;4.57;;;2.47;;
76593;SDS011;65482;50.240;14.302;2023-05-10T02:56:02;4.35;;;2.60;;
76593;SDS011;65482;50.240;14.302;2023-05-10T02:58:32;3.53;;;2.70;;
76593;SDS011;65482;50.240;14.302;2023-05-10T03:00:58;4.45;;;2.83;;
76593;SDS011;65482;50.240;14.302;2023-05-10T03:03:25;4.93;;;2.78;;
76593;SDS011;65482;50.240;14.302;2023-05-10T03:05:51;3.83;;;2.60;;
76593;SDS011;65482;50.240;14.302;2023-05-10T03:08:18;3.75;;;2.60;;
76593;SDS011;65482;50.240;14.302;2023-05-10T03:13:56;3.42;;;2.80;;
76593;SDS011;65482;50.240;14.302;2023-05-10T03:16:40;4.50;;;2.55;;
76593;SDS011;65482;50.240;14.302;2023-05-10T03:19:29;6.97;;;2.42;;
76593;SDS011;65482;50.240;14.302;2023-05-10T03:21:59;3.95;;;2.53;;
76593;SDS011;65482;50.240;14.302;2023-05-10T03:24:32;2.85;;;2.25;;
76593;SDS011;65482;50.240;14.302;2023-05-10T03:27:00;5.32;;;2.67;;
76593;SDS011;65482;50.240;14.302;2023-05-10T03:29:29;5.68;;;2.53;;
76593;SDS011;65482;50.240;14.302;2023-05-10T03:31:57;6.15;;;2.67;;
76593;SDS011;65482;50.240;14.302;2023-05-10T03:34:24;4.30;;;2.80;;
76593;SDS011;65482;50.240;14.302;2023-05-10T03:36:53;3.25;;;2.35;;
76593;SDS011;65482;50.240;14.302;2023-05-10T03:39:18;5.55;;;2.75;;
76593;SDS011;65482;50.240;14.302;2023-05-10T03:41:44;4.50;;;2.83;;
76593;SDS011;65482;50.240;14.302;2023-05-10T03:44:10;4.00;;;2.70;;
76593;SDS011;65482;50.240;14.302;2023-05-10T03:46:35;3.28;;;2.50;;
76593;SDS011;65482;50.240;14.302;2023-05-10T03:49:02;4.13;;;2.75;;
76593;SDS011;65482;50.240;14.302;2023-05-10T03:51:28;3.38;;;2.60;;
76593;SDS011;65482;50.240;14.302;2023-05-10T03:53:54;3.80;;;2.75;;
76593;SDS011;65482;50.240;14.302;2023-05-10T03:56:20;5.85;;;2.70;;
76593;SDS011;65482;50.240;14.302;2023-05-10T03:58:46;3.45;;;2.70;;
76593;SDS011;65482;50.240;14.302;2023-05-10T04:01:12;4.40;;;2.72;;
76593;SDS011;65482;50.240;14.302;2023-05-10T04:03:38;3.65;;;2.70;;
76593;SDS011;65482;50.240;14.302;2023-05-10T04:06:04;3.72;;;2.65;;
76593;SDS011;65482;50.240;14.302;2023-05-10T04:08:31;5.18;;;2.70;;
76593;SDS011;65482;50.240;14.302;2023-05-10T04:11:07;4.85;;;2.60;;
76593;SDS011;65482;50.240;14.302;2023-05-10T04:13:33;6.35;;;2.70;;
76593;SDS011;65482;50.240;14.302;2023-05-10T04:15:59;3.55;;;2.50;;
76593;SDS011;65482;50.240;14.302;2023-05-10T04:18:24;4.57;;;2.72;;
76593;SDS011;65482;50.240;14.302;2023-05-10T04:20:50;4.22;;;2.80;;
76593;SDS011;65482;50.240;14.302;2023-05-10T04:23:16;6.10;;;3.30;;
76593;SDS011;65482;50.240;14.302;2023-05-10T04:25:42;7.35;;;2.97;;
76593;SDS011;65482;50.240;14.302;2023-05-10T04:28:08;6.10;;;3.10;;
76593;SDS011;65482;50.240;14.302;2023-05-10T04:30:34;7.70;;;3.20;;
76593;SDS011;65482;50.240;14.302;2023-05-10T04:33:00;6.90;;;3.00;;
76593;SDS011;65482;50.240;14.302;2023-05-10T04:35:27;6.15;;;3.15;;
76593;SDS011;65482;50.240;14.302;2023-05-10T04:37:54;6.55;;;3.60;;
76593;SDS011;65482;50.240;14.302;2023-05-10T04:40:21;6.93;;;3.38;;
76593;SDS011;65482;50.240;14.302;2023-05-10T04:42:49;10.23;;;3.67;;
76593;SDS011;65482;50.240;14.302;2023-05-10T04:45:15;5.10;;;2.70;;
76593;SDS011;65482;50.240;14.302;2023-05-10T04:47:41;7.25;;;3.20;;
76593;SDS011;65482;50.240;14.302;2023-05-10T04:50:07;7.57;;;4.18;;
76593;SDS011;65482;50.240;14.302;2023-05-10T04:52:33;4.07;;;2.80;;
76593;SDS011;65482;50.240;14.302;2023-05-10T04:54:59;7.00;;;2.92;;
76593;SDS011;65482;50.240;14.302;2023-05-10T04:57:26;4.65;;;3.08;;
76593;SDS011;65482;50.240;14.302;2023-05-10T04:59:53;6.03;;;3.00;;
76593;SDS011;65482;50.240;14.302;2023-05-10T05:02:18;4.18;;;3.30;;
76593;SDS011;65482;50.240;14.302;2023-05-10T05:04:44;7.55;;;3.35;;
76593;SDS011;65482;50.240;14.302;2023-05-10T05:07:10;5.38;;;3.22;;
76593;SDS011;65482;50.240;14.302;2023-05-10T05:09:36;5.57;;;3.22;;
76593;SDS011;65482;50.240;14.302;2023-05-10T05:12:02;4.63;;;3.50;;
76593;SDS011;65482;50.240;14.302;2023-05-10T05:14:28;5.03;;;3.28;;
76593;SDS011;65482;50.240;14.302;2023-05-10T05:16:54;4.72;;;2.95;;
76593;SDS011;65482;50.240;14.302;2023-05-10T05:19:20;3.10;;;2.42;;
76593;SDS011;65482;50.240;14.302;2023-05-10T05:21:45;7.07;;;3.13;;
76593;SDS011;65482;50.240;14.302;2023-05-10T05:24:11;3.38;;;2.60;;
76593;SDS011;65482;50.240;14.302;2023-05-10T05:26:37;5.55;;;2.90;;
76593;SDS011;65482;50.240;14.302;2023-05-10T05:29:03;4.95;;;3.10;;
76593;SDS011;65482;50.240;14.302;2023-05-10T05:31:32;8.68;;;3.15;;
76593;SDS011;65482;50.240;14.302;2023-05-10T05:34:01;6.32;;;2.63;;
76593;SDS011;65482;50.240;14.302;2023-05-10T05:36:26;7.88;;;3.30;;
76593;SDS011;65482;50.240;14.302;2023-05-10T05:38:52;5.20;;;3.20;;
76593;SDS011;65482;50.240;14.302;2023-05-10T05:41:18;5.05;;;2.75;;
76593;SDS011;65482;50.240;14.302;2023-05-10T05:43:49;4.78;;;2.70;;
76593;SDS011;65482;50.240;14.302;2023-05-10T05:46:26;6.38;;;3.30;;
76593;SDS011;65482;50.240;14.302;2023-05-10T05:48:53;6.72;;;4.18;;
76593;SDS011;65482;50.240;14.302;2023-05-10T05:51:39;6.10;;;2.95;;
76593;SDS011;65482;50.240;14.302;2023-05-10T05:58:34;4.90;;;3.08;;
76593;SDS011;65482;50.240;14.302;2023-05-10T06:01:34;3.55;;;2.90;;
76593;SDS011;65482;50.240;14.302;2023-05-10T06:03:59;6.25;;;3.47;;
76593;SDS011;65482;50.240;14.302;2023-05-10T06:06:25;3.88;;;2.97;;
76593;SDS011;65482;50.240;14.302;2023-05-10T06:08:52;4.97;;;2.92;;
76593;SDS011;65482;50.240;14.302;2023-05-10T06:11:17;3.78;;;2.78;;
76593;SDS011;65482;50.240;14.302;2023-05-10T06:13:43;4.95;;;2.88;;
76593;SDS011;65482;50.240;14.302;2023-05-10T06:16:08;7.53;;;3.47;;
76593;SDS011;65482;50.240;14.302;2023-05-10T06:18:34;5.15;;;2.95;;
76593;SDS011;65482;50.240;14.302;2023-05-10T06:20:59;4.60;;;2.80;;
76593;SDS011;65482;50.240;14.302;2023-05-10T06:23:26;3.50;;;2.60;;
76593;SDS011;65482;50.240;14.302;2023-05-10T06:25:52;4.10;;;2.80;;
76593;SDS011;65482;50.240;14.302;2023-05-10T06:28:17;3.85;;;2.78;;
76593;SDS011;65482;50.240;14.302;2023-05-10T06:30:43;5.40;;;2.78;;
76593;SDS011;65482;50.240;14.302;2023-05-10T06:33:09;5.53;;;2.67;;
76593;SDS011;65482;50.240;14.302;2023-05-10T06:35:35;3.55;;;2.63;;
76593;SDS011;65482;50.240;14.302;2023-05-10T06:38:02;3.30;;;2.63;;
76593;SDS011;65482;50.240;14.302;2023-05-10T06:40:27;6.63;;;2.95;;
76593;SDS011;65482;50.240;14.302;2023-05-10T06:42:53;7.65;;;3.10;;
76593;SDS011;65482;50.240;14.302;2023-05-10T06:45:19;5.38;;;2.78;;
76593;SDS011;65482;50.240;14.302;2023-05-10T06:47:45;5.53;;;3.03;;
76593;SDS011;65482;50.240;14.302;2023-05-10T06:50:10;3.88;;;2.97;;
76593;SDS011;65482;50.240;14.302;2023-05-10T06:52:36;4.07;;;2.67;;
76593;SDS011;65482;50.240;14.302;2023-05-10T06:55:03;5.00;;;3.00;;
76593;SDS011;65482;50.240;14.302;2023-05-10T06:57:30;4.57;;;2.80;;
76593;SDS011;65482;50.240;14.302;2023-05-10T06:59:56;6.20;;;2.88;;
76593;SDS011;65482;50.240;14.302;2023-05-10T07:02:22;6.35;;;3.20;;
76593;SDS011;65482;50.240;14.302;2023-05-10T07:04:48;6.40;;;3.25;;
76593;SDS011;65482;50.240;14.302;2023-05-10T07:07:14;3.50;;;2.50;;
76593;SDS011;65482;50.240;14.302;2023-05-10T07:09:39;5.20;;;2.90;;
76593;SDS011;65482;50.240;14.302;2023-05-10T07:12:05;6.95;;;2.90;;
76593;SDS011;65482;50.240;14.302;2023-05-10T07:14:31;4.53;;;2.90;;
76593;SDS011;65482;50.240;14.302;2023-05-10T07:16:57;3.60;;;2.65;;
76593;SDS011;65482;50.240;14.302;2023-05-10T07:19:22;16.88;;;3.58;;
76593;SDS011;65482;50.240;14.302;2023-05-10T07:21:48;3.83;;;2.50;;
76593;SDS011;65482;50.240;14.302;2023-05-10T07:24:13;3.47;;;2.80;;
76593;SDS011;65482;50.240;14.302;2023-05-10T07:26:40;3.95;;;2.80;;
76593;SDS011;65482;50.240;14.302;2023-05-10T07:29:06;7.13;;;2.50;;
76593;SDS011;65482;50.240;14.302;2023-05-10T07:31:31;7.47;;;3.95;;
76593;SDS011;65482;50.240;14.302;2023-05-10T07:33:57;7.57;;;3.20;;
76593;SDS011;65482;50.240;14.302;2023-05-10T07:36:23;5.10;;;2.55;;
76593;SDS011;65482;50.240;14.302;2023-05-10T07:38:49;4.78;;;3.00;;
76593;SDS011;65482;50.240;14.302;2023-05-10T07:41:15;4.88;;;2.85;;
76593;SDS011;65482;50.240;14.302;2023-05-10T07:43:42;4.50;;;2.60;;
76593;SDS011;65482;50.240;14.302;2023-05-10T07:46:08;4.60;;;2.67;;
76593;SDS011;65482;50.240;14.302;2023-05-10T07:48:36;4.88;;;2.60;;
76593;SDS011;65482;50.240;14.302;2023-05-10T07:51:02;5.75;;;3.30;;
76593;SDS011;65482;50.240;14.302;2023-05-10T07:53:27;3.60;;;2.60;;
76593;SDS011;65482;50.240;14.302;2023-05-10T07:55:54;4.32;;;2.60;;
76593;SDS011;65482;50.240;14.302;2023-05-10T07:58:23;3.95;;;2.70;;
76593;SDS011;65482;50.240;14.302;2023-05-10T08:00:49;5.60;;;2.85;;
76593;SDS011;65482;50.240;14.302;2023-05-10T08:03:14;4.85;;;2.85;;
76593;SDS011;65482;50.240;14.302;2023-05-10T08:05:40;6.40;;;2.60;;
76593;SDS011;65482;50.240;14.302;2023-05-10T08:08:06;3.60;;;2.60;;
76593;SDS011;65482;50.240;14.302;2023-05-10T08:17:42;3.88;;;2.88;;
76593;SDS011;65482;50.240;14.302;2023-05-10T08:24:12;4.07;;;2.80;;
76593;SDS011;65482;50.240;14.302;2023-05-10T08:47:08;4.07;;;2.60;;
76593;SDS011;65482;50.240;14.302;2023-05-10T08:50:13;5.40;;;2.60;;
76593;SDS011;65482;50.240;14.302;2023-05-10T08:59:52;4.87;;;2.70;;
76593;SDS011;65482;50.240;14.302;2023-05-10T09:02:18;10.50;;;2.80;;
76593;SDS011;65482;50.240;14.302;2023-05-10T09:04:45;6.43;;;2.88;;
76593;SDS011;65482;50.240;14.302;2023-05-10T09:07:11;15.80;;;2.67;;
76593;SDS011;65482;50.240;14.302;2023-05-10T09:09:37;11.38;;;3.40;;
76593;SDS011;65482;50.240;14.302;2023-05-10T09:12:03;8.85;;;3.03;;
76593;SDS011;65482;50.240;14.302;2023-05-10T09:14:29;4.55;;;3.10;;
76593;SDS011;65482;50.240;14.302;2023-05-10T09:16:56;6.10;;;2.78;;
76593;SDS011;65482;50.240;14.302;2023-05-10T09:19:21;9.95;;;2.63;;
76593;SDS011;65482;50.240;14.302;2023-05-10T09:21:47;7.28;;;2.63;;
76593;SDS011;65482;50.240;14.302;2023-05-10T09:24:13;4.53;;;2.75;;
76593;SDS011;65482;50.240;14.302;2023-05-10T09:26:45;9.25;;;2.60;;
76593;SDS011;65482;50.240;14.302;2023-05-10T09:29:12;5.75;;;2.90;;
76593;SDS011;65482;50.240;14.302;2023-05-10T09:34:22;3.65;;;3.10;;
76593;SDS011;65482;50.240;14.302;2023-05-10T09:36:59;3.50;;;3.20;;
76593;SDS011;65482;50.240;14.302;2023-05-10T09:39:29;5.63;;;3.65;;
76593;SDS011;65482;50.240;14.302;2023-05-10T09:41:57;4.35;;;3.05;;
76593;SDS011;65482;50.240;14.302;2023-05-10T09:44:27;4.60;;;3.00;;
76593;SDS011;65482;50.240;14.302;2023-05-10T09:46:53;3.47;;;2.78;;
76593;SDS011;65482;50.240;14.302;2023-05-10T09:49:19;4.18;;;3.40;;
76593;SDS011;65482;50.240;14.302;2023-05-10T09:51:46;3.75;;;3.20;;
76593;SDS011;65482;50.240;14.302;2023-05-10T09:54:15;4.40;;;3.20;;
76593;SDS011;65482;50.240;14.302;2023-05-10T10:02:10;6.17;;;2.70;;
76593;SDS011;65482;50.240;14.302;2023-05-10T10:08:56;10.18;;;2.95;;
76593;SDS011;65482;50.240;14.302;2023-05-10T10:29:10;5.28;;;3.00;;
76593;SDS011;65482;50.240;14.302;2023-05-10T10:32:18;4.25;;;2.85;;
76593;SDS011;65482;50.240;14.302;2023-05-10T10:34:49;6.70;;;3.30;;
76593;SDS011;65482;50.240;14.302;2023-05-10T10:37:15;8.48;;;3.20;;
76593;SDS011;65482;50.240;14.302;2023-05-10T10:39:41;6.32;;;3.20;;
76593;SDS011;65482;50.240;14.302;2023-05-10T10:42:07;5.80;;;2.92;;
76593;SDS011;65482;50.240;14.302;2023-05-10T10:44:39;5.95;;;3.15;;
76593;SDS011;65482;50.240;14.302;2023-05-10T10:47:06;6.18;;;3.25;;
76593;SDS011;65482;50.240;14.302;2023-05-10T10:57:45;4.10;;;2.97;;
76593;SDS011;65482;50.240;14.302;2023-05-10T11:00:25;5.07;;;2.90;;
76593;SDS011;65482;50.240;14.302;2023-05-10T11:03:11;5.13;;;3.30;;
76593;SDS011;65482;50.240;14.302;2023-05-10T11:08:14;5.20;;;3.33;;
76593;SDS011;65482;50.240;14.302;2023-05-10T11:13:32;4.95;;;3.03;;
76593;SDS011;65482;50.240;14.302;2023-05-10T11:16:30;21.83;;;3.63;;
76593;SDS011;65482;50.240;14.302;2023-05-10T11:19:10;10.23;;;3.38;;
76593;SDS011;65482;50.240;14.302;2023-05-10T11:24:22;6.95;;;3.30;;
76593;SDS011;65482;50.240;14.302;2023-05-10T11:26:53;6.38;;;3.08;;
76593;SDS011;65482;50.240;14.302;2023-05-10T11:29:18;8.85;;;2.92;;
76593;SDS011;65482;50.240;14.302;2023-05-10T11:31:45;5.38;;;2.80;;
76593;SDS011;65482;50.240;14.302;2023-05-10T11:34:13;4.72;;;2.97;;
76593;SDS011;65482;50.240;14.302;2023-05-10T11:36:50;6.30;;;2.97;;
76593;SDS011;65482;50.240;14.302;2023-05-10T11:39:19;6.25;;;2.92;;
76593;SDS011;65482;50.240;14.302;2023-05-10T11:41:46;3.58;;;2.70;;
76593;SDS011;65482;50.240;14.302;2023-05-10T11:44:13;4.55;;;2.60;;
76593;SDS011;65482;50.240;14.302;2023-05-10T11:46:39;3.38;;;2.58;;
76593;SDS011;65482;50.240;14.302;2023-05-10T11:49:04;4.40;;;2.45;;
76593;SDS011;65482;50.240;14.302;2023-05-10T11:51:33;4.28;;;2.50;;
76593;SDS011;65482;50.240;14.302;2023-05-10T11:54:01;3.90;;;2.45;;
76593;SDS011;65482;50.240;14.302;2023-05-10T11:56:35;7.05;;;2.72;;
76593;SDS011;65482;50.240;14.302;2023-05-10T11:59:01;4.60;;;2.63;;
76593;SDS011;65482;50.240;14.302;2023-05-10T12:01:28;6.47;;;2.58;;
76593;SDS011;65482;50.240;14.302;2023-05-10T12:03:55;3.10;;;2.10;;
76593;SDS011;65482;50.240;14.302;2023-05-10T12:06:31;4.63;;;2.53;;
76593;SDS011;65482;50.240;14.302;2023-05-10T12:09:05;5.28;;;2.53;;
76593;SDS011;65482;50.240;14.302;2023-05-10T12:11:32;3.13;;;2.80;;
76593;SDS011;65482;50.240;14.302;2023-05-10T12:14:03;3.80;;;2.50;;
76593;SDS011;65482;50.240;14.302;2023-05-10T12:16:30;5.05;;;2.50;;
76593;SDS011;65482;50.240;14.302;2023-05-10T12:18:57;2.90;;;2.42;;
76593;SDS011;65482;50.240;14.302;2023-05-10T12:21:25;4.05;;;2.28;;
76593;SDS011;65482;50.240;14.302;2023-05-10T12:23:53;4.93;;;2.45;;
76593;SDS011;65482;50.240;14.302;2023-05-10T12:26:23;4.90;;;2.20;;
76593;SDS011;65482;50.240;14.302;2023-05-10T12:28:49;2.90;;;2.22;;
76593;SDS011;65482;50.240;14.302;2023-05-10T12:31:15;3.45;;;2.30;;
76593;SDS011;65482;50.240;14.302;2023-05-10T12:33:42;2.92;;;2.60;;
76593;SDS011;65482;50.240;14.302;2023-05-10T12:36:09;3.03;;;2.28;;
76593;SDS011;65482;50.240;14.302;2023-05-10T12:38:36;4.45;;;2.65;;
76593;SDS011;65482;50.240;14.302;2023-05-10T12:41:04;5.00;;;2.42;;
76593;SDS011;65482;50.240;14.302;2023-05-10T12:43:31;2.85;;;2.50;;
76593;SDS011;65482;50.240;14.302;2023-05-10T12:45:58;3.70;;;2.80;;
76593;SDS011;65482;50.240;14.302;2023-05-10T12:48:23;4.88;;;2.55;;
76593;SDS011;65482;50.240;14.302;2023-05-10T12:50:49;3.70;;;2.45;;
76593;SDS011;65482;50.240;14.302;2023-05-10T12:53:15;2.50;;;2.30;;
76593;SDS011;65482;50.240;14.302;2023-05-10T12:55:44;4.28;;;2.30;;
76593;SDS011;65482;50.240;14.302;2023-05-10T12:58:10;4.05;;;2.33;;
76593;SDS011;65482;50.240;14.302;2023-05-10T13:00:36;3.60;;;2.50;;
76593;SDS011;65482;50.240;14.302;2023-05-10T13:03:03;2.70;;;2.20;;
76593;SDS011;65482;50.240;14.302;2023-05-10T13:05:31;3.47;;;2.45;;
76593;SDS011;65482;50.240;14.302;2023-05-10T13:07:59;6.22;;;2.38;;
76593;SDS011;65482;50.240;14.302;2023-05-10T13:10:25;3.70;;;2.47;;
76593;SDS011;65482;50.240;14.302;2023-05-10T13:12:51;4.45;;;2.20;;
76593;SDS011;65482;50.240;14.302;2023-05-10T13:15:16;2.83;;;2.33;;
76593;SDS011;65482;50.240;14.302;2023-05-10T13:17:42;3.97;;;2.50;;
76593;SDS011;65482;50.240;14.302;2023-05-10T13:20:08;4.88;;;2.13;;
76593;SDS011;65482;50.240;14.302;2023-05-10T13:22:37;5.88;;;2.50;;
76593;SDS011;65482;50.240;14.302;2023-05-10T13:25:02;5.40;;;2.40;;
76593;SDS011;65482;50.240;14.302;2023-05-10T13:27:28;4.53;;;2.30;;
76593;SDS011;65482;50.240;14.302;2023-05-10T13:29:54;4.75;;;2.55;;
76593;SDS011;65482;50.240;14.302;2023-05-10T13:32:20;2.63;;;2.15;;
76593;SDS011;65482;50.240;14.302;2023-05-10T13:34:46;5.97;;;2.40;;
76593;SDS011;65482;50.240;14.302;2023-05-10T13:37:12;2.78;;;2.30;;
76593;SDS011;65482;50.240;14.302;2023-05-10T13:39:38;6.90;;;2.45;;
76593;SDS011;65482;50.240;14.302;2023-05-10T13:42:08;4.38;;;2.40;;
76593;SDS011;65482;50.240;14.302;2023-05-10T13:44:40;3.35;;;2.10;;
76593;SDS011;65482;50.240;14.302;2023-05-10T13:47:06;2.63;;;2.40;;
76593;SDS011;65482;50.240;14.302;2023-05-10T13:49:32;4.47;;;2.40;;
76593;SDS011;65482;50.240;14.302;2023-05-10T13:51:59;4.80;;;2.58;;
76593;SDS011;65482;50.240;14.302;2023-05-10T13:54:26;6.50;;;2.80;;
76593;SDS011;65482;50.240;14.302;2023-05-10T13:56:54;3.38;;;2.40;;
76593;SDS011;65482;50.240;14.302;2023-05-10T13:59:20;5.43;;;2.40;;
76593;SDS011;65482;50.240;14.302;2023-05-10T14:01:45;7.32;;;3.80;;
76593;SDS011;65482;50.240;14.302;2023-05-10T14:04:11;5.90;;;4.03;;
76593;SDS011;65482;50.240;14.302;2023-05-10T14:06:36;8.57;;;3.95;;
76593;SDS011;65482;50.240;14.302;2023-05-10T14:09:05;6.05;;;4.25;;
76593;SDS011;65482;50.240;14.302;2023-05-10T14:11:30;5.07;;;3.65;;
76593;SDS011;65482;50.240;14.302;2023-05-10T14:13:56;8.48;;;4.20;;
76593;SDS011;65482;50.240;14.302;2023-05-10T14:16:21;15.13;;;4.20;;
76593;SDS011;65482;50.240;14.302;2023-05-10T14:18:47;4.88;;;3.78;;
76593;SDS011;65482;50.240;14.302;2023-05-10T14:21:12;8.10;;;4.18;;
76593;SDS011;65482;50.240;14.302;2023-05-10T14:23:38;7.95;;;4.18;;
76593;SDS011;65482;50.240;14.302;2023-05-10T14:26:04;7.43;;;4.32;;
76593;SDS011;65482;50.240;14.302;2023-05-10T14:28:30;9.75;;;4.60;;
76593;SDS011;65482;50.240;14.302;2023-05-10T14:30:55;6.38;;;4.25;;
76593;SDS011;65482;50.240;14.302;2023-05-10T14:33:22;8.00;;;4.38;;
76593;SDS011;65482;50.240;14.302;2023-05-10T14:35:47;9.13;;;4.40;;
76593;SDS011;65482;50.240;14.302;2023-05-10T14:38:15;9.82;;;4.50;;
76593;SDS011;65482;50.240;14.302;2023-05-10T14:40:40;6.75;;;4.30;;
76593;SDS011;65482;50.240;14.302;2023-05-10T14:43:06;7.32;;;4.07;;
76593;SDS011;65482;50.240;14.302;2023-05-10T14:45:31;4.40;;;3.75;;
76593;SDS011;65482;50.240;14.302;2023-05-10T14:47:57;5.95;;;3.90;;
76593;SDS011;65482;50.240;14.302;2023-05-10T14:50:23;6.55;;;4.45;;
76593;SDS011;65482;50.240;14.302;2023-05-10T14:52:48;5.80;;;4.20;;
76593;SDS011;65482;50.240;14.302;2023-05-10T14:55:15;6.43;;;4.28;;
76593;SDS011;65482;50.240;14.302;2023-05-10T14:57:40;7.43;;;4.07;;
76593;SDS011;65482;50.240;14.302;2023-05-10T15:00:06;6.88;;;4.53;;
76593;SDS011;65482;50.240;14.302;2023-05-10T15:02:32;9.23;;;4.28;;
76593;SDS011;65482;50.240;14.302;2023-05-10T15:05:05;6.53;;;4.35;;
76593;SDS011;65482;50.240;14.302;2023-05-10T15:07:31;6.65;;;4.30;;
76593;SDS011;65482;50.240;14.302;2023-05-10T15:09:56;6.13;;;4.20;;
76593;SDS011;65482;50.240;14.302;2023-05-10T15:12:27;9.13;;;5.47;;
76593;SDS011;65482;50.240;14.302;2023-05-10T15:14:53;4.28;;;3.88;;
76593;SDS011;65482;50.240;14.302;2023-05-10T15:17:21;6.18;;;3.78;;
76593;SDS011;65482;50.240;14.302;2023-05-10T15:19:47;5.65;;;4.13;;
76593;SDS011;65482;50.240;14.302;2023-05-10T15:22:15;4.63;;;3.75;;
76593;SDS011;65482;50.240;14.302;2023-05-10T15:24:41;6.00;;;4.30;;
76593;SDS011;65482;50.240;14.302;2023-05-10T15:27:11;9.15;;;4.05;;
76593;SDS011;65482;50.240;14.302;2023-05-10T15:29:36;5.25;;;4.10;;
76593;SDS011;65482;50.240;14.302;2023-05-10T15:32:02;8.25;;;4.38;;
76593;SDS011;65482;50.240;14.302;2023-05-10T15:34:29;5.50;;;3.85;;
76593;SDS011;65482;50.240;14.302;2023-05-10T15:36:57;6.53;;;3.78;;
76593;SDS011;65482;50.240;14.302;2023-05-10T15:39:23;4.50;;;3.72;;
76593;SDS011;65482;50.240;14.302;2023-05-10T15:41:51;7.72;;;4.38;;
76593;SDS011;65482;50.240;14.302;2023-05-10T15:44:18;6.40;;;4.28;;
76593;SDS011;65482;50.240;14.302;2023-05-10T15:46:46;7.45;;;3.97;;
76593;SDS011;65482;50.240;14.302;2023-05-10T15:49:12;10.45;;;4.55;;
76593;SDS011;65482;50.240;14.302;2023-05-10T15:51:39;8.60;;;4.97;;
76593;SDS011;65482;50.240;14.302;2023-05-10T15:54:05;7.22;;;4.95;;
76593;SDS011;65482;50.240;14.302;2023-05-10T15:56:36;6.53;;;4.47;;
76593;SDS011;65482;50.240;14.302;2023-05-10T15:59:02;7.60;;;4.30;;
76593;SDS011;65482;50.240;14.302;2023-05-10T16:01:45;20.10;;;4.32;;
76593;SDS011;65482;50.240;14.302;2023-05-10T16:04:12;10.73;;;4.68;;
76593;SDS011;65482;50.240;14.302;2023-05-10T16:06:38;8.15;;;4.57;;
76593;SDS011;65482;50.240;14.302;2023-05-10T16:09:06;11.70;;;5.50;;
76593;SDS011;65482;50.240;14.302;2023-05-10T16:11:34;8.05;;;4.50;;
76593;SDS011;65482;50.240;14.302;2023-05-10T16:14:02;10.93;;;4.88;;
76593;SDS011;65482;50.240;14.302;2023-05-10T16:16:28;4.55;;;3.80;;
76593;SDS011;65482;50.240;14.302;2023-05-10T16:18:57;7.15;;;4.72;;
76593;SDS011;65482;50.240;14.302;2023-05-10T16:21:25;14.00;;;4.63;;
76593;SDS011;65482;50.240;14.302;2023-05-10T16:23:50;15.80;;;4.85;;